Time;durP1;ratioP1;P1;durP2;ratioP2;P2;SDS_P1;SDS_P2;PMS_P1;PMS_P2;Temp;Humidity;BMP_temperature;BMP_pressure;BME280_temperature;BME280_humidity;BME280_pressure;Samples;Min_cycle;Max_cycle;Signal;HPM_P1;HPM_P2
2022/05/03 00:01:05;;;;;;;6.55;5.95;;;12.70;97.50;;;;;;4971129;28;20244;-82
2022/05/03 00:03:40;;;;;;;6.72;6.03;;;12.40;97.70;;;;;;4986044;28;20197;-82
2022/05/03 00:06:23;;;;;;;8.63;6.90;;;12.40;98.70;;;;;;4964464;28;20207;-82
2022/05/03 00:08:57;;;;;;;11.73;6.50;;;12.70;98.20;;;;;;4970891;28;20205;-82
2022/05/03 00:11:31;;;;;;;8.80;6.10;;;12.40;98.40;;;;;;4989479;28;20231;-82
2022/05/03 00:14:06;;;;;;;6.85;5.78;;;12.50;98.50;;;;;;4986126;28;20256;-82
2022/05/03 00:16:35;;;;;;;6.85;6.15;;;12.50;98.40;;;;;;4958771;28;20209;-82
2022/05/03 00:19:06;;;;;;;7.50;6.50;;;12.40;99.00;;;;;;4982889;28;20220;-82
2022/05/03 00:21:35;;;;;;;8.65;6.22;;;12.50;98.80;;;;;;4961531;28;20225;-83
2022/05/03 00:24:05;;;;;;;7.60;6.40;;;12.40;99.10;;;;;;4973306;28;20199;-82
2022/05/03 00:26:33;;;;;;;11.00;6.53;;;12.40;99.00;;;;;;4986550;28;20672;-83
2022/05/03 00:29:02;;;;;;;8.40;6.55;;;12.40;99.40;;;;;;4976553;28;20583;-82
2022/05/03 00:31:38;;;;;;;5.88;5.30;;;12.50;99.40;;;;;;4978399;28;20220;-83
2022/05/03 00:34:07;;;;;;;7.43;6.05;;;12.40;99.10;;;;;;4972923;28;20197;-82
2022/05/03 00:36:34;;;;;;;7.60;6.32;;;12.40;99.50;;;;;;4973356;28;20205;-82
2022/05/03 00:39:02;;;;;;;6.78;6.10;;;12.20;99.90;;;;;;4964816;28;20219;-82
2022/05/03 00:41:36;;;;;;;7.33;6.23;;;12.10;99.90;;;;;;4973340;28;20243;-82
2022/05/03 00:47:00;;;;;;;7.97;7.10;;;11.90;99.90;;;;;;4974597;28;20698;-83
2022/05/03 00:49:37;;;;;;;6.63;6.03;;;11.90;99.90;;;;;;4985809;28;20213;-82
2022/05/03 00:52:09;;;;;;;8.20;6.78;;;11.80;99.90;;;;;;4974409;28;20189;-83
2022/05/03 00:54:48;;;;;;;7.47;6.63;;;11.70;99.90;;;;;;4970161;28;20213;-82
2022/05/03 00:57:34;;;;;;;7.20;6.50;;;11.70;99.90;;;;;;4988208;28;20201;-82
2022/05/03 01:00:13;;;;;;;7.57;6.75;;;11.60;99.90;;;;;;4980883;28;20801;-83
2022/05/03 01:03:08;;;;;;;7.30;6.30;;;11.60;99.90;;;;;;4970123;28;20236;-82
2022/05/03 01:05:46;;;;;;;6.82;6.22;;;11.80;99.90;;;;;;4976326;28;20208;-82
2022/05/03 01:08:29;;;;;;;7.40;6.43;;;11.80;99.90;;;;;;4971998;28;20204;-82
2022/05/03 01:11:16;;;;;;;11.23;7.00;;;11.80;99.90;;;;;;4969952;28;20220;-82
2022/05/03 01:13:53;;;;;;;7.87;6.13;;;11.80;99.90;;;;;;4969048;28;20203;-82
2022/05/03 01:16:28;;;;;;;7.13;6.43;;;11.70;99.90;;;;;;4972761;28;20203;-83
2022/05/03 01:19:04;;;;;;;8.33;6.77;;;11.70;99.90;;;;;;4971107;28;20211;-83
2022/05/03 01:21:55;;;;;;;8.75;7.55;;;11.60;99.90;;;;;;4965326;28;20228;-83
2022/05/03 01:24:37;;;;;;;9.37;7.20;;;11.60;99.90;;;;;;4981839;28;20197;-82
2022/05/03 01:27:31;;;;;;;8.33;6.90;;;11.30;99.90;;;;;;4973266;28;20181;-82
2022/05/03 01:30:03;;;;;;;7.72;6.93;;;11.60;99.90;;;;;;4986887;28;20690;-82
2022/05/03 01:32:33;;;;;;;7.83;6.77;;;11.50;99.90;;;;;;4975309;28;20194;-82
2022/05/03 01:35:04;;;;;;;7.10;6.40;;;11.30;99.90;;;;;;4976287;28;20216;-82
2022/05/03 01:37:56;;;;;;;7.50;6.73;;;11.20;99.90;;;;;;4970962;28;20205;-82
2022/05/03 01:40:34;;;;;;;8.17;6.63;;;11.20;99.90;;;;;;4968287;28;20244;-82
2022/05/03 01:43:12;;;;;;;7.17;6.43;;;11.20;99.90;;;;;;4963469;28;20213;-82
2022/05/03 01:45:53;;;;;;;7.57;6.87;;;11.10;99.90;;;;;;4974544;28;20607;-83
2022/05/03 01:51:39;;;;;;;9.23;7.33;;;10.90;99.90;;;;;;4975065;28;20240;-81
2022/05/03 01:54:24;;;;;;;8.77;7.23;;;10.60;99.90;;;;;;4970831;28;20655;-82
2022/05/03 01:57:01;;;;;;;9.90;7.77;;;10.50;99.90;;;;;;4975608;28;20205;-82
2022/05/03 01:59:38;;;;;;;7.53;6.80;;;10.30;99.90;;;;;;4970259;28;20200;-82
2022/05/03 02:02:18;;;;;;;8.70;6.83;;;10.00;99.90;;;;;;4974518;28;20224;-82
2022/05/03 02:04:58;;;;;;;7.47;6.73;;;10.20;99.90;;;;;;4988746;28;20205;-82
2022/05/03 02:07:36;;;;;;;7.40;6.63;;;10.30;99.90;;;;;;4974955;28;20208;-82
2022/05/03 02:10:07;;;;;;;7.67;6.83;;;10.40;99.90;;;;;;4974760;28;20213;-82
2022/05/03 02:12:35;;;;;;;8.30;7.50;;;10.50;99.90;;;;;;4974788;28;20219;-82
2022/05/03 02:15:04;;;;;;;8.30;6.50;;;10.50;99.90;;;;;;4976281;28;20189;-82
2022/05/03 02:17:52;;;;;;;7.50;6.73;;;10.50;99.90;;;;;;4973908;28;20201;-82
2022/05/03 02:20:32;;;;;;;9.33;7.30;;;10.40;99.90;;;;;;4967578;28;20233;-82
2022/05/03 02:23:10;;;;;;;7.83;7.00;;;10.40;99.90;;;;;;4981103;28;20220;-82
2022/05/03 02:26:10;;;;;;;7.67;6.63;;;10.30;99.90;;;;;;4961176;28;20196;-82
2022/05/03 02:28:42;;;;;;;8.27;6.60;;;10.20;99.90;;;;;;4960048;28;20660;-82
2022/05/03 02:31:14;;;;;;;8.20;6.83;;;10.20;99.90;;;;;;4975727;28;20229;-82
2022/05/03 02:33:49;;;;;;;7.43;6.73;;;10.20;99.90;;;;;;4974942;28;20209;-82
2022/05/03 02:36:21;;;;;;;7.57;6.77;;;10.30;99.90;;;;;;4991268;28;20200;-82
2022/05/03 02:38:54;;;;;;;7.53;6.83;;;10.50;99.90;;;;;;4988952;28;20201;-82
2022/05/03 02:41:23;;;;;;;7.97;7.17;;;10.50;99.90;;;;;;4978445;28;20227;-82
2022/05/03 02:43:51;;;;;;;8.53;7.23;;;10.50;99.90;;;;;;4982620;28;20208;-82
2022/05/03 02:46:47;;;;;;;8.13;6.97;;;10.10;99.90;;;;;;4972649;28;20196;-81
2022/05/03 02:49:19;;;;;;;7.73;6.93;;;9.90;99.90;;;;;;4982127;28;20209;-82
2022/05/03 02:51:53;;;;;;;8.10;7.27;;;10.10;99.90;;;;;;4973441;28;20217;-82
2022/05/03 02:54:34;;;;;;;10.50;8.20;;;10.10;99.90;;;;;;4970030;28;20201;-82
2022/05/03 02:57:14;;;;;;;7.47;6.77;;;10.00;99.90;;;;;;4987092;28;20205;-82
2022/05/03 03:02:44;;;;;;;7.47;6.63;;;9.90;99.90;;;;;;4984379;28;20226;-82
2022/05/03 03:05:17;;;;;;;7.67;6.70;;;10.00;99.90;;;;;;4958217;28;20201;-82
2022/05/03 03:07:53;;;;;;;8.43;6.53;;;10.00;99.90;;;;;;4968710;28;20204;-82
2022/05/03 03:10:22;;;;;;;7.90;7.10;;;10.00;99.90;;;;;;4986012;28;20703;-82
2022/05/03 03:12:57;;;;;;;8.03;7.23;;;9.90;99.90;;;;;;4986315;28;20193;-82
2022/05/03 03:15:29;;;;;;;8.53;7.67;;;10.00;99.90;;;;;;4970877;28;20205;-82
2022/05/03 03:17:58;;;;;;;7.60;6.90;;;9.80;99.90;;;;;;4972392;28;20216;-82
2022/05/03 03:20:28;;;;;;;7.20;6.50;;;9.70;99.90;;;;;;4963410;28;20233;-82
2022/05/03 03:22:56;;;;;;;7.10;6.43;;;9.50;99.90;;;;;;4985092;28;20217;-83
2022/05/03 03:25:24;;;;;;;8.07;7.27;;;9.40;99.90;;;;;;4968259;28;20210;-82
2022/05/03 03:27:54;;;;;;;8.53;6.90;;;9.50;99.90;;;;;;4955411;28;20205;-82
2022/05/03 03:30:22;;;;;;;7.23;6.53;;;9.50;99.90;;;;;;4982739;28;20225;-82
2022/05/03 03:32:51;;;;;;;6.63;6.03;;;9.50;99.90;;;;;;4968747;28;20200;-83
2022/05/03 03:35:19;;;;;;;8.03;6.67;;;9.60;99.90;;;;;;4969887;28;20563;-82
2022/05/03 03:37:49;;;;;;;7.80;6.60;;;9.70;99.90;;;;;;4977493;28;20205;-82
2022/05/03 03:40:18;;;;;;;6.77;6.10;;;9.70;99.90;;;;;;4968764;28;20225;-82
2022/05/03 03:42:46;;;;;;;7.07;6.37;;;9.70;99.90;;;;;;4983818;28;20225;-82
2022/05/03 03:45:15;;;;;;;7.80;6.33;;;9.70;99.90;;;;;;4969383;28;20205;-82
2022/05/03 03:47:44;;;;;;;10.20;6.87;;;9.70;99.90;;;;;;4981021;28;20209;-83
2022/05/03 03:50:12;;;;;;;8.37;6.97;;;9.70;99.90;;;;;;4972461;28;20232;-82
2022/05/03 03:52:41;;;;;;;10.00;7.00;;;9.70;99.90;;;;;;4991061;28;20197;-82
2022/05/03 03:55:11;;;;;;;6.70;6.00;;;9.60;99.90;;;;;;4973819;28;20205;-82
2022/05/03 03:57:39;;;;;;;8.43;7.43;;;9.50;99.90;;;;;;4973278;28;20656;-83
2022/05/03 04:00:09;;;;;;;7.87;7.07;;;9.60;99.90;;;;;;4959009;28;20232;-83
2022/05/03 04:02:41;;;;;;;9.00;7.90;;;9.60;99.90;;;;;;4962038;28;20218;-82
2022/05/03 04:05:13;;;;;;;8.80;7.10;;;9.60;99.90;;;;;;4964575;28;20209;-82
2022/05/03 04:07:40;;;;;;;7.80;6.83;;;9.60;99.90;;;;;;4971594;28;20216;-82
2022/05/03 04:10:09;;;;;;;9.43;6.83;;;9.50;99.90;;;;;;4977327;28;20229;-82
2022/05/03 04:12:37;;;;;;;7.67;6.33;;;9.60;99.90;;;;;;4953498;29;20201;-83
2022/05/03 04:15:06;;;;;;;8.60;7.27;;;9.60;99.90;;;;;;4982702;28;20212;-83
2022/05/03 04:17:33;;;;;;;7.70;7.00;;;9.50;99.90;;;;;;4965027;28;20209;-83
2022/05/03 04:20:01;;;;;;;7.40;6.60;;;9.60;99.90;;;;;;4963456;28;20252;-82
2022/05/03 04:22:30;;;;;;;7.80;7.00;;;9.50;99.90;;;;;;4980162;28;20796;-82
2022/05/03 04:24:58;;;;;;;7.37;6.67;;;9.40;99.90;;;;;;4965244;28;20225;-83
2022/05/03 04:27:27;;;;;;;8.37;6.67;;;9.20;99.90;;;;;;4970483;28;20205;-82
2022/05/03 04:29:55;;;;;;;9.33;7.07;;;9.10;99.90;;;;;;4974592;28;20587;-82
2022/05/03 04:32:29;;;;;;;9.33;7.33;;;9.30;99.90;;;;;;4971950;28;20203;-80
2022/05/03 04:34:57;;;;;;;9.27;7.73;;;9.40;99.90;;;;;;4969607;28;20209;-80
2022/05/03 04:37:24;;;;;;;8.43;7.53;;;9.00;99.90;;;;;;4969092;28;20201;-80
2022/05/03 04:39:52;;;;;;;9.13;6.60;;;9.20;99.90;;;;;;4987046;28;20225;-80
2022/05/03 04:42:19;;;;;;;8.83;7.17;;;9.40;99.90;;;;;;4967467;28;20209;-80
2022/05/03 04:44:48;;;;;;;7.70;6.90;;;9.00;99.90;;;;;;4972727;28;20205;-80
2022/05/03 04:47:15;;;;;;;8.37;7.57;;;9.10;99.90;;;;;;4966811;28;20217;-80
2022/05/03 04:49:43;;;;;;;7.90;6.93;;;9.10;99.90;;;;;;4962490;28;20200;-80
2022/05/03 04:52:11;;;;;;;7.77;6.90;;;9.20;99.90;;;;;;4965301;28;20217;-80
2022/05/03 04:54:39;;;;;;;8.87;7.57;;;9.30;99.90;;;;;;4964651;28;20201;-80
2022/05/03 04:57:07;;;;;;;7.67;6.83;;;9.40;99.90;;;;;;4979645;28;20208;-79
2022/05/03 04:59:36;;;;;;;7.93;7.07;;;9.50;99.90;;;;;;4970237;28;20220;-80
2022/05/03 05:02:05;;;;;;;8.83;7.10;;;9.50;99.90;;;;;;4971860;28;20205;-80
2022/05/03 05:04:32;;;;;;;7.87;6.97;;;9.60;99.90;;;;;;4965619;28;20228;-80
2022/05/03 05:07:01;;;;;;;8.87;7.67;;;9.60;99.90;;;;;;4985110;28;20220;-79
2022/05/03 05:09:28;;;;;;;7.47;6.57;;;9.60;99.90;;;;;;4964923;28;20216;-80
2022/05/03 05:12:11;;;;;;;8.33;6.80;;;9.70;99.90;;;;;;4969086;28;20216;-80
2022/05/03 05:14:39;;;;;;;7.77;6.50;;;9.70;99.90;;;;;;4977667;28;20193;-80
2022/05/03 05:17:07;;;;;;;7.80;6.80;;;9.80;99.90;;;;;;4984594;28;20205;-80
2022/05/03 05:19:35;;;;;;;8.10;7.30;;;9.80;99.90;;;;;;4972200;28;20216;-80
2022/05/03 05:22:02;;;;;;;8.47;7.57;;;9.70;99.90;;;;;;4976036;28;20213;-80
2022/05/03 05:24:29;;;;;;;8.93;7.50;;;9.90;99.90;;;;;;4990134;28;20217;-80
2022/05/03 05:26:57;;;;;;;8.30;7.40;;;10.00;99.90;;;;;;4960114;28;20202;-82
2022/05/03 05:29:24;;;;;;;8.50;7.70;;;10.00;99.90;;;;;;4975041;28;20200;-80
2022/05/03 05:31:51;;;;;;;9.10;7.00;;;10.00;99.90;;;;;;4959872;28;20555;-80
2022/05/03 05:34:20;;;;;;;10.37;7.40;;;10.00;99.90;;;;;;4992940;28;20220;-80
2022/05/03 05:36:50;;;;;;;8.97;7.03;;;10.10;99.90;;;;;;4992466;28;20197;-79
2022/05/03 05:39:17;;;;;;;9.57;7.63;;;10.20;99.90;;;;;;4979533;28;20664;-79
2022/05/03 05:41:53;;;;;;;8.07;7.27;;;10.20;99.90;;;;;;4980416;28;20228;-79
2022/05/03 05:44:20;;;;;;;8.53;6.67;;;10.50;99.90;;;;;;4977090;28;20221;-80
2022/05/03 05:46:48;;;;;;;8.27;6.93;;;10.80;99.90;;;;;;4975977;28;20228;-79
2022/05/03 05:49:15;;;;;;;7.37;6.67;;;11.00;99.90;;;;;;4975998;28;20220;-80
2022/05/03 05:51:45;;;;;;;8.43;6.73;;;11.00;99.90;;;;;;4978411;28;20209;-80
2022/05/03 05:54:11;;;;;;;8.77;6.90;;;10.90;99.90;;;;;;4992898;28;20189;-79
2022/05/03 05:56:40;;;;;;;7.83;7.00;;;10.80;99.90;;;;;;4991699;28;20204;-79
2022/05/03 05:59:07;;;;;;;9.77;6.90;;;10.70;99.90;;;;;;4964379;28;20683;-79
2022/05/03 06:01:37;;;;;;;7.63;6.57;;;10.60;99.90;;;;;;4958189;28;20962;-79
2022/05/03 06:04:05;;;;;;;7.50;6.10;;;10.80;99.90;;;;;;4976233;28;20225;-80
2022/05/03 06:06:35;;;;;;;8.03;6.80;;;10.90;99.90;;;;;;4976983;28;20213;-81
2022/05/03 06:09:04;;;;;;;8.37;6.47;;;11.20;99.90;;;;;;4971850;28;20205;-80
2022/05/03 06:11:32;;;;;;;7.27;6.57;;;11.20;99.10;;;;;;4966525;28;20680;-80
2022/05/03 06:13:59;;;;;;;7.70;6.77;;;11.30;98.90;;;;;;4958708;28;20190;-79
2022/05/03 06:16:29;;;;;;;6.70;6.00;;;11.50;98.30;;;;;;4986441;28;20213;-80
2022/05/03 06:18:56;;;;;;;6.83;6.23;;;11.40;97.80;;;;;;4965381;28;20201;-80
2022/05/03 06:21:23;;;;;;;6.63;5.80;;;11.60;98.00;;;;;;4964374;28;20229;-80
2022/05/03 06:23:51;;;;;;;8.73;6.27;;;11.70;97.40;;;;;;4966754;28;20229;-79
2022/05/03 06:26:21;;;;;;;8.03;6.47;;;11.80;97.00;;;;;;4975697;28;20730;-80
2022/05/03 06:28:56;;;;;;;7.17;6.10;;;12.00;96.50;;;;;;4974742;28;20206;-79
2022/05/03 06:31:24;;;;;;;6.73;5.87;;;12.00;95.90;;;;;;4965134;28;20244;-80
2022/05/03 06:33:51;;;;;;;8.33;6.90;;;11.90;96.20;;;;;;4967074;28;20229;-80
2022/05/03 06:36:21;;;;;;;7.38;6.18;;;12.00;96.40;;;;;;4972465;28;20208;-80
2022/05/03 06:38:49;;;;;;;7.27;6.30;;;12.10;95.80;;;;;;4971173;28;20554;-79
2022/05/03 06:41:16;;;;;;;6.43;5.83;;;12.20;95.60;;;;;;4964139;28;20216;-80
2022/05/03 06:43:45;;;;;;;7.13;6.43;;;12.20;95.20;;;;;;4977818;28;20216;-81
2022/05/03 06:46:13;;;;;;;6.53;5.72;;;12.20;95.10;;;;;;4959270;28;20210;-81
2022/05/03 06:48:40;;;;;;;13.60;6.10;;;12.20;95.40;;;;;;4982563;28;20227;-80
2022/05/03 06:51:08;;;;;;;6.50;5.88;;;12.30;95.30;;;;;;4973305;28;20233;-80
2022/05/03 06:53:39;;;;;;;7.88;6.55;;;12.30;95.10;;;;;;4991338;28;20686;-79
2022/05/03 06:56:06;;;;;;;10.00;6.78;;;12.20;95.20;;;;;;4974729;28;20216;-80
2022/05/03 06:58:36;;;;;;;10.52;7.05;;;12.20;95.20;;;;;;4972558;28;20689;-79
2022/05/03 07:01:09;;;;;;;6.85;6.07;;;12.40;95.10;;;;;;4968537;28;20233;-80
2022/05/03 07:03:37;;;;;;;8.85;5.82;;;12.40;94.80;;;;;;4970816;28;20225;-80
2022/05/03 07:06:05;;;;;;;9.07;6.88;;;12.40;94.70;;;;;;4966086;28;20208;-80
2022/05/03 07:08:33;;;;;;;8.75;6.57;;;12.50;94.70;;;;;;4964685;28;20205;-80
2022/05/03 07:11:00;;;;;;;8.63;6.50;;;12.30;94.90;;;;;;4989834;28;20225;-80
2022/05/03 07:13:28;;;;;;;9.05;6.43;;;12.40;95.00;;;;;;4990272;28;20208;-80
2022/05/03 07:15:59;;;;;;;6.28;5.65;;;12.30;95.00;;;;;;4973858;28;20192;-80
2022/05/03 07:23:58;;;;;;;10.85;5.22;;;12.70;93.20;;;;;;4974099;28;20221;-80
2022/05/03 07:26:26;;;;;;;4.65;4.15;;;12.90;92.80;;;;;;4986999;28;20668;-80
2022/05/03 07:28:53;;;;;;;5.13;4.28;;;12.80;92.40;;;;;;4972272;28;20212;-80
2022/05/03 07:31:21;;;;;;;5.32;4.25;;;13.10;91.60;;;;;;4988654;28;20221;-80
2022/05/03 07:33:50;;;;;;;3.72;3.42;;;13.10;91.20;;;;;;4957270;28;20206;-80
2022/05/03 07:36:20;;;;;;;5.88;3.97;;;13.20;90.90;;;;;;4979626;28;20201;-80
2022/05/03 07:38:47;;;;;;;3.75;3.08;;;13.30;90.50;;;;;;4978569;28;20205;-80
2022/05/03 07:41:15;;;;;;;3.35;2.90;;;13.30;88.20;;;;;;4978750;28;20618;-80
2022/05/03 07:43:43;;;;;;;3.00;2.70;;;13.30;84.60;;;;;;4982654;28;20205;-80
2022/05/03 07:46:10;;;;;;;3.72;2.92;;;13.30;84.30;;;;;;4973313;28;20193;-80
2022/05/03 07:48:38;;;;;;;4.07;2.80;;;13.40;82.50;;;;;;4965384;28;20212;-80
2022/05/03 07:51:07;;;;;;;3.58;3.05;;;13.40;82.70;;;;;;4969494;28;20225;-80
2022/05/03 07:53:35;;;;;;;3.38;2.60;;;13.50;82.30;;;;;;4967698;28;20202;-80
2022/05/03 07:56:02;;;;;;;5.75;3.05;;;13.70;82.00;;;;;;4973280;28;20208;-80
2022/05/03 07:58:30;;;;;;;5.43;2.63;;;13.70;78.00;;;;;;4964455;28;20201;-80
2022/05/03 08:00:57;;;;;;;2.47;2.28;;;13.80;76.60;;;;;;4971842;28;20220;-80
2022/05/03 08:03:25;;;;;;;4.03;2.40;;;13.80;74.50;;;;;;4989158;28;20272;-80
2022/05/03 08:05:55;;;;;;;3.03;2.80;;;13.80;72.60;;;;;;4974342;28;20197;-80
2022/05/03 08:08:24;;;;;;;3.35;2.60;;;13.80;73.60;;;;;;4971739;28;20205;-80
2022/05/03 08:10:51;;;;;;;2.50;2.22;;;13.80;73.80;;;;;;4973174;28;20243;-79
2022/05/03 08:13:21;;;;;;;5.00;2.25;;;13.70;73.40;;;;;;4989115;28;20369;-80
2022/05/03 08:15:48;;;;;;;2.42;2.03;;;13.90;72.60;;;;;;4985805;28;20194;-80
2022/05/03 08:18:18;;;;;;;3.63;2.65;;;14.00;71.10;;;;;;4962441;28;20201;-80
2022/05/03 08:20:45;;;;;;;2.20;2.00;;;14.20;69.70;;;;;;4973587;28;20239;-80
2022/05/03 08:23:13;;;;;;;2.63;2.17;;;14.20;68.60;;;;;;4972511;28;20200;-80
2022/05/03 08:25:42;;;;;;;2.95;2.20;;;14.20;69.50;;;;;;4985668;28;20218;-80
2022/05/03 08:28:09;;;;;;;2.40;2.05;;;14.20;68.50;;;;;;4980425;28;20208;-80
2022/05/03 08:30:37;;;;;;;2.28;2.08;;;14.30;67.50;;;;;;4965690;28;20236;-80
2022/05/03 08:33:06;;;;;;;1.95;1.75;;;14.50;66.60;;;;;;4969778;28;20209;-79
2022/05/03 08:35:34;;;;;;;1.98;1.67;;;14.20;67.30;;;;;;4965132;28;20200;-80
2022/05/03 08:43:32;;;;;;;2.65;2.05;;;14.30;67.40;;;;;;4988514;28;20215;-80
2022/05/03 08:46:01;;;;;;;2.53;1.90;;;14.50;66.00;;;;;;4972613;28;20228;-80
2022/05/03 08:48:33;;;;;;;3.50;2.13;;;14.70;66.10;;;;;;4982212;28;20205;-80
2022/05/03 08:51:01;;;;;;;3.50;2.20;;;14.50;65.10;;;;;;4983026;28;20240;-80
2022/05/03 08:53:29;;;;;;;4.20;2.83;;;14.50;65.70;;;;;;4988822;28;20211;-80
2022/05/03 08:55:58;;;;;;;3.25;2.72;;;14.50;65.40;;;;;;4992063;28;20189;-80
2022/05/03 08:58:26;;;;;;;2.90;2.55;;;14.70;65.70;;;;;;4972992;28;20585;-80
2022/05/03 09:00:54;;;;;;;3.55;3.00;;;14.80;66.30;;;;;;4968623;28;20220;-80
2022/05/03 09:03:22;;;;;;;3.20;2.30;;;14.70;66.20;;;;;;4987129;28;20672;-80
2022/05/03 09:05:49;;;;;;;2.65;2.30;;;14.70;65.30;;;;;;4977149;28;20302;-80
2022/05/03 09:08:23;;;;;;;3.97;2.65;;;14.70;65.10;;;;;;4959447;28;20194;-80
2022/05/03 09:10:51;;;;;;;4.65;3.08;;;14.90;67.50;;;;;;4992853;28;20709;-80
2022/05/03 09:13:22;;;;;;;2.90;2.63;;;14.90;64.50;;;;;;4973822;28;20209;-80
2022/05/03 09:15:51;;;;;;;3.28;2.45;;;15.00;66.10;;;;;;4966808;28;20193;-80
2022/05/03 09:18:24;;;;;;;3.53;2.78;;;14.90;65.90;;;;;;4975493;28;20208;-80
2022/05/03 09:23:51;;;;;;;4.50;2.72;;;15.00;65.00;;;;;;4975096;28;20654;-80
2022/05/03 09:26:21;;;;;;;6.53;3.17;;;14.90;64.80;;;;;;4980547;28;20213;-80
2022/05/03 09:28:52;;;;;;;4.63;2.83;;;15.00;66.40;;;;;;4983362;28;20212;-80
2022/05/03 09:31:32;;;;;;;3.47;3.17;;;15.00;64.30;;;;;;4975999;28;20232;-80
2022/05/03 09:34:00;;;;;;;3.88;2.50;;;15.00;67.10;;;;;;4972311;28;20571;-80
2022/05/03 09:36:28;;;;;;;3.88;2.83;;;15.10;65.70;;;;;;4971065;28;20197;-80
2022/05/03 09:38:57;;;;;;;3.67;2.92;;;15.10;65.10;;;;;;4967240;28;20227;-80
2022/05/03 09:41:25;;;;;;;3.30;2.72;;;15.10;64.20;;;;;;4957001;29;20218;-80
2022/05/03 09:44:05;;;;;;;4.55;2.80;;;15.20;63.70;;;;;;4964259;28;20202;-80
2022/05/03 09:46:51;;;;;;;3.35;2.85;;;15.30;66.80;;;;;;4969257;28;20213;-80
2022/05/03 09:49:20;;;;;;;4.18;3.00;;;15.30;66.40;;;;;;4971679;28;20206;-80
2022/05/03 09:51:48;;;;;;;3.72;3.00;;;15.50;66.20;;;;;;4957395;28;20222;-80
2022/05/03 09:54:17;;;;;;;4.63;3.05;;;15.50;63.40;;;;;;4965087;28;20204;-80
2022/05/03 09:56:49;;;;;;;2.97;2.65;;;15.50;62.90;;;;;;4961542;28;20190;-81
2022/05/03 09:59:20;;;;;;;3.05;2.60;;;15.60;62.00;;;;;;4958639;28;20205;-80
2022/05/03 10:01:48;;;;;;;3.33;3.03;;;15.70;62.00;;;;;;4967605;28;20224;-80
2022/05/03 10:04:15;;;;;;;4.63;2.70;;;15.60;61.60;;;;;;4970968;28;20205;-80
2022/05/03 10:06:46;;;;;;;4.28;2.38;;;15.50;63.70;;;;;;4972342;28;20702;-80
2022/05/03 10:09:14;;;;;;;3.70;2.53;;;15.80;62.60;;;;;;4958859;28;20193;-80
2022/05/03 10:11:45;;;;;;;3.70;2.67;;;16.00;63.60;;;;;;4967722;28;20228;-80
2022/05/03 10:14:17;;;;;;;3.65;2.38;;;16.00;61.30;;;;;;4977282;28;20194;-80
2022/05/03 10:22:18;;;;;;;3.38;2.97;;;16.20;61.50;;;;;;4969545;28;20212;-80
2022/05/03 10:24:56;;;;;;;2.75;2.55;;;16.40;61.70;;;;;;4977826;28;20205;-79
2022/05/03 10:27:25;;;;;;;3.55;2.47;;;16.10;59.80;;;;;;4977719;28;20264;-79
2022/05/03 10:30:26;;;;;;;3.38;3.08;;;16.30;60.40;;;;;;4991262;28;20228;-80
2022/05/03 10:33:28;;;;;;;3.33;2.95;;;16.10;58.00;;;;;;4975983;28;20185;-80
2022/05/03 10:35:58;;;;;;;4.05;2.90;;;16.30;58.60;;;;;;4975681;28;20193;-80
2022/05/03 10:38:36;;;;;;;3.38;2.70;;;16.50;60.40;;;;;;4976223;28;20205;-80
2022/05/03 10:41:05;;;;;;;6.07;3.22;;;16.60;60.10;;;;;;4973213;28;20227;-80
2022/05/03 10:43:34;;;;;;;4.25;3.08;;;16.60;59.00;;;;;;4987676;28;20216;-80
2022/05/03 10:46:10;;;;;;;3.13;2.83;;;16.80;58.00;;;;;;4965581;28;20243;-80
2022/05/03 10:48:41;;;;;;;3.10;2.83;;;16.90;56.80;;;;;;4975844;28;20197;-80
2022/05/03 10:51:11;;;;;;;4.47;3.45;;;17.00;56.70;;;;;;4965781;28;20230;-80
2022/05/03 10:53:40;;;;;;;3.38;3.10;;;17.10;56.80;;;;;;4973349;28;20205;-80
2022/05/03 10:56:19;;;;;;;4.32;3.33;;;17.10;56.60;;;;;;4965272;28;20197;-80
2022/05/03 10:59:05;;;;;;;3.97;3.13;;;16.90;55.30;;;;;;4991798;28;20209;-80
2022/05/03 11:01:33;;;;;;;3.28;2.97;;;17.00;56.70;;;;;;4979856;28;20220;-80
2022/05/03 11:04:11;;;;;;;4.63;2.80;;;17.40;57.30;;;;;;4989970;28;20206;-80
2022/05/03 11:06:47;;;;;;;3.35;2.90;;;17.30;54.60;;;;;;4970796;28;20228;-80
2022/05/03 11:09:17;;;;;;;4.13;3.47;;;17.50;54.80;;;;;;4985958;28;20212;-80
2022/05/03 11:11:56;;;;;;;5.85;3.67;;;17.80;56.40;;;;;;4990970;28;20232;-80
2022/05/03 11:14:49;;;;;;;3.42;3.13;;;17.80;56.80;;;;;;4969439;28;20293;-80
2022/05/03 11:17:20;;;;;;;5.07;3.15;;;17.80;57.20;;;;;;4949386;28;20221;-80
2022/05/03 11:19:58;;;;;;;3.88;3.58;;;18.00;57.80;;;;;;4955359;29;20205;-80
2022/05/03 11:22:30;;;;;;;5.88;3.90;;;17.90;58.90;;;;;;4961610;28;20693;-80
2022/05/03 11:25:04;;;;;;;4.55;4.10;;;18.20;55.10;;;;;;4974024;28;20200;-80
2022/05/03 11:27:32;;;;;;;4.70;4.00;;;18.00;54.80;;;;;;4967909;28;20217;-80
2022/05/03 11:30:03;;;;;;;6.25;4.38;;;18.00;53.80;;;;;;4973059;28;20225;-80
2022/05/03 11:32:34;;;;;;;4.68;3.70;;;17.90;53.00;;;;;;4990840;28;20205;-80
2022/05/03 11:35:03;;;;;;;4.00;3.60;;;18.00;53.90;;;;;;4965206;28;20201;-80
2022/05/03 11:37:32;;;;;;;4.18;3.80;;;18.00;54.60;;;;;;4973704;28;20201;-83
2022/05/03 11:40:09;;;;;;;4.57;4.00;;;18.30;54.00;;;;;;4988751;28;20623;-82
2022/05/03 11:42:42;;;;;;;4.40;3.97;;;18.70;56.00;;;;;;4973658;28;20201;-83
2022/05/03 11:45:10;;;;;;;4.82;3.90;;;18.80;53.20;;;;;;4985159;28;20210;-80
2022/05/03 11:47:41;;;;;;;6.93;5.10;;;19.00;54.20;;;;;;4961451;28;20229;-80
2022/05/03 11:50:10;;;;;;;5.03;4.47;;;18.60;54.90;;;;;;4963161;28;20222;-80
2022/05/03 11:58:11;;;;;;;6.20;4.57;;;18.80;55.30;;;;;;4973021;28;20205;-80
2022/05/03 12:00:46;;;;;;;5.13;4.30;;;18.90;58.60;;;;;;4988556;28;20240;-80
2022/05/03 12:03:14;;;;;;;5.43;4.45;;;18.90;54.30;;;;;;4989870;28;20200;-80
2022/05/03 12:05:56;;;;;;;4.97;4.57;;;19.10;55.10;;;;;;4989859;28;20564;-80
2022/05/03 12:08:26;;;;;;;6.03;5.18;;;19.20;54.60;;;;;;4972312;28;20216;-80
2022/05/03 12:10:56;;;;;;;4.35;3.95;;;19.40;53.00;;;;;;4982364;28;20228;-80
2022/05/03 12:13:30;;;;;;;4.30;3.83;;;19.60;53.80;;;;;;4990306;28;20212;-82
2022/05/03 12:16:11;;;;;;;5.82;5.03;;;19.40;55.50;;;;;;4972701;28;20192;-82
2022/05/03 12:18:43;;;;;;;6.13;4.40;;;19.40;56.40;;;;;;4962857;28;20204;-80
2022/05/03 12:21:12;;;;;;;7.07;4.40;;;19.50;56.70;;;;;;4972310;28;20240;-81
2022/05/03 12:23:47;;;;;;;5.07;4.45;;;19.80;54.00;;;;;;4989303;28;20563;-81
2022/05/03 12:26:17;;;;;;;4.53;4.13;;;20.00;54.00;;;;;;4964869;28;20220;-80
2022/05/03 12:28:47;;;;;;;4.90;4.47;;;19.50;54.50;;;;;;4982223;28;20212;-80
2022/05/03 12:31:16;;;;;;;5.38;4.20;;;19.30;54.90;;;;;;4972799;28;20240;-80
2022/05/03 12:33:46;;;;;;;5.80;4.55;;;19.50;54.30;;;;;;4975328;28;20540;-80
2022/05/03 12:36:35;;;;;;;5.90;4.38;;;19.80;52.70;;;;;;4981590;28;20204;-80
2022/05/03 12:39:16;;;;;;;4.50;4.10;;;19.70;53.80;;;;;;5001429;23;20225;-81
2022/05/03 12:41:45;;;;;;;4.75;4.35;;;19.50;52.10;;;;;;4970202;28;20201;-81
2022/05/03 12:44:14;;;;;;;5.05;4.18;;;19.40;53.80;;;;;;4980257;28;20201;-82
2022/05/03 12:46:43;;;;;;;3.90;3.58;;;20.10;53.50;;;;;;4992439;28;20224;-82
2022/05/03 12:49:12;;;;;;;5.80;3.60;;;20.60;52.50;;;;;;4976396;28;20224;-82
2022/05/03 12:51:41;;;;;;;5.50;3.70;;;20.80;51.10;;;;;;4974798;28;20212;-82
2022/05/03 12:54:10;;;;;;;4.25;3.85;;;20.20;51.80;;;;;;4958008;29;20190;-82
2022/05/03 12:59:25;;;;;;;4.80;3.75;;;20.50;52.00;;;;;;4956017;29;20226;-82
2022/05/03 13:01:56;;;;;;;4.22;3.83;;;21.40;51.90;;;;;;4941123;28;20688;-82
2022/05/03 13:04:24;;;;;;;4.00;3.60;;;20.80;52.00;;;;;;4954906;29;20549;-82
2022/05/03 13:06:53;;;;;;;3.83;3.53;;;20.40;54.20;;;;;;4957833;28;20229;-82
2022/05/03 13:09:20;;;;;;;5.93;3.88;;;21.10;52.40;;;;;;4959035;28;20226;-82
2022/05/03 13:11:49;;;;;;;4.20;3.80;;;21.00;52.30;;;;;;4957203;29;20216;-82
2022/05/03 13:14:17;;;;;;;4.03;3.38;;;20.80;52.20;;;;;;4957135;28;20209;-82
2022/05/03 13:16:48;;;;;;;4.15;3.42;;;21.00;50.90;;;;;;4971383;28;20209;-82
2022/05/03 13:19:19;;;;;;;4.18;3.67;;;21.40;50.70;;;;;;4971269;28;20221;-82
2022/05/03 13:21:48;;;;;;;3.85;3.55;;;21.40;48.40;;;;;;4957660;29;20202;-82
2022/05/03 13:24:18;;;;;;;4.25;3.85;;;21.40;47.20;;;;;;4957339;29;20209;-82
2022/05/03 13:26:46;;;;;;;5.03;4.38;;;21.20;47.00;;;;;;4956915;29;20714;-82
2022/05/03 13:29:16;;;;;;;6.05;3.70;;;21.10;46.80;;;;;;4957784;29;20232;-82
2022/05/03 13:31:45;;;;;;;4.13;3.72;;;21.20;46.70;;;;;;4973638;28;20201;-82
2022/05/03 13:34:13;;;;;;;4.32;3.53;;;21.70;48.20;;;;;;4950708;28;20462;-82
2022/05/03 13:42:14;;;;;;;4.10;3.70;;;20.80;48.80;;;;;;4959286;28;20210;-81
2022/05/03 13:44:43;;;;;;;4.50;4.00;;;21.20;50.10;;;;;;4959497;29;20213;-82
2022/05/03 13:47:12;;;;;;;5.57;4.35;;;21.90;47.70;;;;;;4940804;29;20229;-82
2022/05/03 13:49:40;;;;;;;3.88;3.47;;;21.90;46.70;;;;;;4957330;28;20222;-82
2022/05/03 13:52:10;;;;;;;3.90;3.47;;;22.50;47.60;;;;;;4941292;29;20210;-82